sensor_id;sensor_type;location;lat;lon;timestamp;P1;durP1;ratioP1;P2;durP2;ratioP2
80172;SDS011;69497;41.708;44.804;2023-04-24T00:01:23;9.13;;;5.20;;
80172;SDS011;69497;41.708;44.804;2023-04-24T00:03:49;7.53;;;5.28;;
80172;SDS011;69497;41.708;44.804;2023-04-24T00:06:15;10.75;;;5.30;;
80172;SDS011;69497;41.708;44.804;2023-04-24T00:08:42;8.52;;;5.55;;
80172;SDS011;69497;41.708;44.804;2023-04-24T00:11:09;8.52;;;5.07;;
80172;SDS011;69497;41.708;44.804;2023-04-24T00:13:35;7.88;;;5.82;;
80172;SDS011;69497;41.708;44.804;2023-04-24T00:16:01;7.93;;;6.00;;
80172;SDS011;69497;41.708;44.804;2023-04-24T00:18:27;9.68;;;5.78;;
80172;SDS011;69497;41.708;44.804;2023-04-24T00:20:53;8.02;;;5.35;;
80172;SDS011;69497;41.708;44.804;2023-04-24T00:23:19;8.63;;;5.28;;
80172;SDS011;69497;41.708;44.804;2023-04-24T00:25:45;12.07;;;5.75;;
80172;SDS011;69497;41.708;44.804;2023-04-24T00:28:11;10.35;;;6.15;;
80172;SDS011;69497;41.708;44.804;2023-04-24T00:30:37;9.23;;;5.80;;
80172;SDS011;69497;41.708;44.804;2023-04-24T00:33:03;8.65;;;5.97;;
80172;SDS011;69497;41.708;44.804;2023-04-24T00:35:29;8.50;;;5.82;;
80172;SDS011;69497;41.708;44.804;2023-04-24T00:37:55;10.30;;;5.93;;
80172;SDS011;69497;41.708;44.804;2023-04-24T00:40:21;13.00;;;6.18;;
80172;SDS011;69497;41.708;44.804;2023-04-24T00:42:47;11.98;;;6.55;;
80172;SDS011;69497;41.708;44.804;2023-04-24T00:45:13;10.90;;;6.38;;
80172;SDS011;69497;41.708;44.804;2023-04-24T00:47:39;15.25;;;6.30;;
80172;SDS011;69497;41.708;44.804;2023-04-24T00:50:07;10.25;;;6.22;;
80172;SDS011;69497;41.708;44.804;2023-04-24T00:52:34;13.02;;;7.00;;
80172;SDS011;69497;41.708;44.804;2023-04-24T00:55:00;13.38;;;7.85;;
80172;SDS011;69497;41.708;44.804;2023-04-24T00:57:26;13.30;;;6.78;;
80172;SDS011;69497;41.708;44.804;2023-04-24T00:59:52;14.43;;;7.72;;
80172;SDS011;69497;41.708;44.804;2023-04-24T01:02:19;13.23;;;6.68;;
80172;SDS011;69497;41.708;44.804;2023-04-24T01:04:46;10.20;;;7.43;;
80172;SDS011;69497;41.708;44.804;2023-04-24T01:07:12;11.93;;;7.57;;
80172;SDS011;69497;41.708;44.804;2023-04-24T01:09:38;12.13;;;7.53;;
80172;SDS011;69497;41.708;44.804;2023-04-24T01:12:07;13.48;;;7.70;;
80172;SDS011;69497;41.708;44.804;2023-04-24T01:14:33;12.02;;;6.80;;
80172;SDS011;69497;41.708;44.804;2023-04-24T01:16:59;9.75;;;6.60;;
80172;SDS011;69497;41.708;44.804;2023-04-24T01:19:27;10.88;;;6.88;;
80172;SDS011;69497;41.708;44.804;2023-04-24T01:21:53;10.98;;;6.40;;
80172;SDS011;69497;41.708;44.804;2023-04-24T01:24:23;9.98;;;7.05;;
80172;SDS011;69497;41.708;44.804;2023-04-24T01:26:49;9.23;;;5.78;;
80172;SDS011;69497;41.708;44.804;2023-04-24T01:29:18;11.35;;;6.75;;
80172;SDS011;69497;41.708;44.804;2023-04-24T01:31:44;10.32;;;6.38;;
80172;SDS011;69497;41.708;44.804;2023-04-24T01:34:10;13.65;;;7.53;;
80172;SDS011;69497;41.708;44.804;2023-04-24T01:36:36;11.10;;;7.25;;
80172;SDS011;69497;41.708;44.804;2023-04-24T01:39:03;11.85;;;7.85;;
80172;SDS011;69497;41.708;44.804;2023-04-24T01:41:29;11.18;;;8.02;;
80172;SDS011;69497;41.708;44.804;2023-04-24T01:43:56;12.10;;;7.95;;
80172;SDS011;69497;41.708;44.804;2023-04-24T01:46:23;18.30;;;10.25;;
80172;SDS011;69497;41.708;44.804;2023-04-24T01:48:50;18.80;;;12.75;;
80172;SDS011;69497;41.708;44.804;2023-04-24T01:51:19;18.48;;;12.02;;
80172;SDS011;69497;41.708;44.804;2023-04-24T01:53:45;15.55;;;11.93;;
80172;SDS011;69497;41.708;44.804;2023-04-24T01:56:11;16.67;;;12.35;;
80172;SDS011;69497;41.708;44.804;2023-04-24T01:58:37;17.27;;;13.40;;
80172;SDS011;69497;41.708;44.804;2023-04-24T02:01:05;16.58;;;12.95;;
80172;SDS011;69497;41.708;44.804;2023-04-24T02:03:32;18.33;;;13.38;;
80172;SDS011;69497;41.708;44.804;2023-04-24T02:05:58;20.60;;;14.90;;
80172;SDS011;69497;41.708;44.804;2023-04-24T02:08:24;14.02;;;10.65;;
80172;SDS011;69497;41.708;44.804;2023-04-24T02:10:50;15.35;;;11.55;;
80172;SDS011;69497;41.708;44.804;2023-04-24T02:13:16;15.98;;;11.63;;
80172;SDS011;69497;41.708;44.804;2023-04-24T02:15:42;18.42;;;13.02;;
80172;SDS011;69497;41.708;44.804;2023-04-24T02:18:08;16.52;;;12.88;;
80172;SDS011;69497;41.708;44.804;2023-04-24T02:20:34;17.25;;;13.55;;
80172;SDS011;69497;41.708;44.804;2023-04-24T02:23:01;20.88;;;14.00;;
80172;SDS011;69497;41.708;44.804;2023-04-24T02:25:27;17.27;;;13.43;;
80172;SDS011;69497;41.708;44.804;2023-04-24T02:27:54;18.50;;;13.65;;
80172;SDS011;69497;41.708;44.804;2023-04-24T02:30:20;20.83;;;14.75;;
80172;SDS011;69497;41.708;44.804;2023-04-24T02:32:46;23.73;;;15.98;;
80172;SDS011;69497;41.708;44.804;2023-04-24T02:35:12;24.52;;;15.73;;
80172;SDS011;69497;41.708;44.804;2023-04-24T02:37:38;20.23;;;14.82;;
80172;SDS011;69497;41.708;44.804;2023-04-24T02:40:05;19.10;;;14.63;;
80172;SDS011;69497;41.708;44.804;2023-04-24T02:42:31;22.70;;;15.68;;
80172;SDS011;69497;41.708;44.804;2023-04-24T02:44:57;24.05;;;15.45;;
80172;SDS011;69497;41.708;44.804;2023-04-24T02:47:23;20.73;;;14.23;;
80172;SDS011;69497;41.708;44.804;2023-04-24T02:49:50;18.92;;;14.27;;
80172;SDS011;69497;41.708;44.804;2023-04-24T02:52:15;20.40;;;14.75;;
80172;SDS011;69497;41.708;44.804;2023-04-24T02:54:42;19.23;;;14.50;;
80172;SDS011;69497;41.708;44.804;2023-04-24T02:57:08;16.48;;;12.35;;
80172;SDS011;69497;41.708;44.804;2023-04-24T02:59:35;16.88;;;11.80;;
80172;SDS011;69497;41.708;44.804;2023-04-24T03:02:01;20.45;;;12.98;;
80172;SDS011;69497;41.708;44.804;2023-04-24T03:04:27;19.42;;;14.32;;
80172;SDS011;69497;41.708;44.804;2023-04-24T03:06:53;21.60;;;14.20;;
80172;SDS011;69497;41.708;44.804;2023-04-24T03:09:21;20.17;;;14.55;;
80172;SDS011;69497;41.708;44.804;2023-04-24T03:11:47;19.40;;;13.45;;
80172;SDS011;69497;41.708;44.804;2023-04-24T03:14:15;22.27;;;14.07;;
80172;SDS011;69497;41.708;44.804;2023-04-24T03:16:41;23.23;;;15.07;;
80172;SDS011;69497;41.708;44.804;2023-04-24T03:19:07;27.70;;;14.95;;
80172;SDS011;69497;41.708;44.804;2023-04-24T03:21:40;26.42;;;16.83;;
80172;SDS011;69497;41.708;44.804;2023-04-24T03:24:09;26.80;;;16.50;;
80172;SDS011;69497;41.708;44.804;2023-04-24T03:26:36;31.40;;;16.52;;
80172;SDS011;69497;41.708;44.804;2023-04-24T03:29:23;23.15;;;15.93;;
80172;SDS011;69497;41.708;44.804;2023-04-24T03:31:49;23.27;;;15.30;;
80172;SDS011;69497;41.708;44.804;2023-04-24T03:34:16;23.40;;;15.48;;
80172;SDS011;69497;41.708;44.804;2023-04-24T03:36:43;21.42;;;14.25;;
80172;SDS011;69497;41.708;44.804;2023-04-24T03:39:09;22.10;;;15.85;;
80172;SDS011;69497;41.708;44.804;2023-04-24T03:41:37;23.40;;;16.05;;
80172;SDS011;69497;41.708;44.804;2023-04-24T03:44:10;21.35;;;15.20;;
80172;SDS011;69497;41.708;44.804;2023-04-24T03:46:36;21.60;;;15.70;;
80172;SDS011;69497;41.708;44.804;2023-04-24T03:49:02;25.92;;;15.27;;
80172;SDS011;69497;41.708;44.804;2023-04-24T03:51:32;23.30;;;16.58;;
80172;SDS011;69497;41.708;44.804;2023-04-24T03:54:14;26.23;;;17.05;;
80172;SDS011;69497;41.708;44.804;2023-04-24T03:56:40;25.23;;;16.88;;
80172;SDS011;69497;41.708;44.804;2023-04-24T03:59:07;25.33;;;16.45;;
80172;SDS011;69497;41.708;44.804;2023-04-24T04:01:35;27.75;;;18.00;;
80172;SDS011;69497;41.708;44.804;2023-04-24T04:04:11;23.88;;;16.15;;
80172;SDS011;69497;41.708;44.804;2023-04-24T04:06:37;25.50;;;17.23;;
80172;SDS011;69497;41.708;44.804;2023-04-24T04:09:04;30.42;;;18.27;;
80172;SDS011;69497;41.708;44.804;2023-04-24T04:11:30;28.77;;;18.73;;
80172;SDS011;69497;41.708;44.804;2023-04-24T04:13:56;28.42;;;18.35;;
80172;SDS011;69497;41.708;44.804;2023-04-24T04:16:22;30.00;;;18.75;;
80172;SDS011;69497;41.708;44.804;2023-04-24T04:18:56;23.45;;;16.73;;
80172;SDS011;69497;41.708;44.804;2023-04-24T04:21:22;31.35;;;19.27;;
80172;SDS011;69497;41.708;44.804;2023-04-24T04:23:53;27.75;;;18.10;;
80172;SDS011;69497;41.708;44.804;2023-04-24T04:26:26;27.50;;;17.30;;
80172;SDS011;69497;41.708;44.804;2023-04-24T04:29:00;30.77;;;18.08;;
80172;SDS011;69497;41.708;44.804;2023-04-24T04:31:27;27.42;;;17.85;;
80172;SDS011;69497;41.708;44.804;2023-04-24T04:33:55;23.13;;;15.73;;
80172;SDS011;69497;41.708;44.804;2023-04-24T04:36:21;19.55;;;14.15;;
80172;SDS011;69497;41.708;44.804;2023-04-24T04:38:55;21.13;;;12.25;;
80172;SDS011;69497;41.708;44.804;2023-04-24T04:41:44;24.65;;;11.13;;
80172;SDS011;69497;41.708;44.804;2023-04-24T04:44:16;22.58;;;11.55;;
80172;SDS011;69497;41.708;44.804;2023-04-24T04:46:42;20.08;;;11.35;;
80172;SDS011;69497;41.708;44.804;2023-04-24T04:49:31;18.33;;;10.63;;
80172;SDS011;69497;41.708;44.804;2023-04-24T04:51:58;16.88;;;10.65;;
80172;SDS011;69497;41.708;44.804;2023-04-24T04:54:26;19.08;;;10.38;;
80172;SDS011;69497;41.708;44.804;2023-04-24T04:56:52;17.63;;;9.30;;
80172;SDS011;69497;41.708;44.804;2023-04-24T04:59:19;18.52;;;9.02;;
80172;SDS011;69497;41.708;44.804;2023-04-24T05:01:47;18.35;;;8.65;;
80172;SDS011;69497;41.708;44.804;2023-04-24T05:04:15;19.45;;;8.82;;
80172;SDS011;69497;41.708;44.804;2023-04-24T05:06:41;17.10;;;7.53;;
80172;SDS011;69497;41.708;44.804;2023-04-24T05:09:07;12.55;;;7.53;;
80172;SDS011;69497;41.708;44.804;2023-04-24T05:11:41;13.63;;;7.68;;
80172;SDS011;69497;41.708;44.804;2023-04-24T05:14:07;19.55;;;7.80;;
80172;SDS011;69497;41.708;44.804;2023-04-24T05:16:38;12.73;;;6.45;;
80172;SDS011;69497;41.708;44.804;2023-04-24T05:19:06;21.55;;;5.93;;
80172;SDS011;69497;41.708;44.804;2023-04-24T05:21:38;14.93;;;6.57;;
80172;SDS011;69497;41.708;44.804;2023-04-24T05:24:05;12.82;;;5.70;;
80172;SDS011;69497;41.708;44.804;2023-04-24T05:26:43;13.88;;;5.45;;
80172;SDS011;69497;41.708;44.804;2023-04-24T05:29:11;11.88;;;5.93;;
80172;SDS011;69497;41.708;44.804;2023-04-24T05:31:37;11.85;;;5.63;;
80172;SDS011;69497;41.708;44.804;2023-04-24T05:34:04;10.48;;;5.22;;
80172;SDS011;69497;41.708;44.804;2023-04-24T05:36:31;12.23;;;5.32;;
80172;SDS011;69497;41.708;44.804;2023-04-24T05:38:58;11.35;;;5.40;;
80172;SDS011;69497;41.708;44.804;2023-04-24T05:41:24;13.48;;;6.55;;
80172;SDS011;69497;41.708;44.804;2023-04-24T05:43:51;10.70;;;6.43;;
80172;SDS011;69497;41.708;44.804;2023-04-24T05:46:17;13.15;;;6.70;;
80172;SDS011;69497;41.708;44.804;2023-04-24T05:48:43;12.88;;;5.22;;
80172;SDS011;69497;41.708;44.804;2023-04-24T05:51:09;21.33;;;6.25;;
80172;SDS011;69497;41.708;44.804;2023-04-24T05:53:36;13.85;;;5.97;;
80172;SDS011;69497;41.708;44.804;2023-04-24T05:56:02;12.43;;;5.18;;
80172;SDS011;69497;41.708;44.804;2023-04-24T05:58:29;14.02;;;5.75;;
80172;SDS011;69497;41.708;44.804;2023-04-24T06:00:55;11.23;;;6.32;;
80172;SDS011;69497;41.708;44.804;2023-04-24T06:03:23;14.65;;;5.13;;
80172;SDS011;69497;41.708;44.804;2023-04-24T06:05:50;12.10;;;5.07;;
80172;SDS011;69497;41.708;44.804;2023-04-24T06:08:16;13.02;;;5.47;;
80172;SDS011;69497;41.708;44.804;2023-04-24T06:10:44;17.15;;;5.68;;
80172;SDS011;69497;41.708;44.804;2023-04-24T06:13:10;18.80;;;5.47;;
80172;SDS011;69497;41.708;44.804;2023-04-24T06:15:41;15.50;;;5.72;;
80172;SDS011;69497;41.708;44.804;2023-04-24T06:18:14;16.15;;;5.32;;
80172;SDS011;69497;41.708;44.804;2023-04-24T06:20:41;18.25;;;4.78;;
80172;SDS011;69497;41.708;44.804;2023-04-24T06:23:08;12.55;;;5.65;;
80172;SDS011;69497;41.708;44.804;2023-04-24T06:25:34;14.07;;;4.50;;
80172;SDS011;69497;41.708;44.804;2023-04-24T06:28:01;13.25;;;4.97;;
80172;SDS011;69497;41.708;44.804;2023-04-24T06:30:29;14.23;;;4.82;;
80172;SDS011;69497;41.708;44.804;2023-04-24T06:32:55;12.13;;;4.97;;
80172;SDS011;69497;41.708;44.804;2023-04-24T06:35:21;17.05;;;5.28;;
80172;SDS011;69497;41.708;44.804;2023-04-24T06:37:47;13.13;;;4.32;;
80172;SDS011;69497;41.708;44.804;2023-04-24T06:40:13;13.10;;;4.05;;
80172;SDS011;69497;41.708;44.804;2023-04-24T06:42:39;13.02;;;4.15;;
80172;SDS011;69497;41.708;44.804;2023-04-24T06:45:07;9.40;;;3.85;;
80172;SDS011;69497;41.708;44.804;2023-04-24T06:47:34;13.38;;;4.72;;
80172;SDS011;69497;41.708;44.804;2023-04-24T06:50:00;11.70;;;4.53;;
80172;SDS011;69497;41.708;44.804;2023-04-24T06:52:26;12.32;;;4.72;;
80172;SDS011;69497;41.708;44.804;2023-04-24T06:54:52;15.98;;;4.88;;
80172;SDS011;69497;41.708;44.804;2023-04-24T06:57:18;15.40;;;4.75;;
80172;SDS011;69497;41.708;44.804;2023-04-24T06:59:45;7.80;;;3.67;;
80172;SDS011;69497;41.708;44.804;2023-04-24T07:02:11;31.63;;;4.72;;
80172;SDS011;69497;41.708;44.804;2023-04-24T07:04:36;16.02;;;4.30;;
80172;SDS011;69497;41.708;44.804;2023-04-24T07:07:03;14.82;;;4.43;;
80172;SDS011;69497;41.708;44.804;2023-04-24T07:09:30;15.05;;;4.45;;
80172;SDS011;69497;41.708;44.804;2023-04-24T07:11:56;14.35;;;4.10;;
80172;SDS011;69497;41.708;44.804;2023-04-24T07:14:22;14.18;;;4.80;;
80172;SDS011;69497;41.708;44.804;2023-04-24T07:16:48;10.68;;;4.30;;
80172;SDS011;69497;41.708;44.804;2023-04-24T07:19:14;16.08;;;4.00;;
80172;SDS011;69497;41.708;44.804;2023-04-24T07:21:40;12.10;;;4.75;;
80172;SDS011;69497;41.708;44.804;2023-04-24T07:24:06;11.00;;;3.95;;
80172;SDS011;69497;41.708;44.804;2023-04-24T07:26:36;12.30;;;4.30;;
80172;SDS011;69497;41.708;44.804;2023-04-24T07:29:06;17.20;;;4.88;;
80172;SDS011;69497;41.708;44.804;2023-04-24T07:31:32;10.45;;;4.72;;
80172;SDS011;69497;41.708;44.804;2023-04-24T07:33:59;17.08;;;5.13;;
80172;SDS011;69497;41.708;44.804;2023-04-24T07:36:24;19.83;;;5.65;;
80172;SDS011;69497;41.708;44.804;2023-04-24T07:38:51;12.20;;;5.03;;
80172;SDS011;69497;41.708;44.804;2023-04-24T07:41:18;14.15;;;5.13;;
80172;SDS011;69497;41.708;44.804;2023-04-24T07:43:44;15.23;;;5.10;;
80172;SDS011;69497;41.708;44.804;2023-04-24T07:46:11;14.45;;;5.78;;
80172;SDS011;69497;41.708;44.804;2023-04-24T07:48:37;15.45;;;5.15;;
80172;SDS011;69497;41.708;44.804;2023-04-24T07:51:03;15.80;;;5.03;;
80172;SDS011;69497;41.708;44.804;2023-04-24T07:53:29;13.98;;;5.90;;
80172;SDS011;69497;41.708;44.804;2023-04-24T07:55:55;16.75;;;6.15;;
80172;SDS011;69497;41.708;44.804;2023-04-24T07:58:21;19.95;;;6.40;;
80172;SDS011;69497;41.708;44.804;2023-04-24T08:00:47;19.27;;;5.85;;
80172;SDS011;69497;41.708;44.804;2023-04-24T08:03:14;24.00;;;6.65;;
80172;SDS011;69497;41.708;44.804;2023-04-24T08:05:40;14.50;;;6.18;;
80172;SDS011;69497;41.708;44.804;2023-04-24T08:08:07;16.13;;;6.00;;
80172;SDS011;69497;41.708;44.804;2023-04-24T08:10:33;14.27;;;5.90;;
80172;SDS011;69497;41.708;44.804;2023-04-24T08:12:59;10.98;;;5.53;;
80172;SDS011;69497;41.708;44.804;2023-04-24T08:15:27;21.42;;;6.50;;
80172;SDS011;69497;41.708;44.804;2023-04-24T08:17:53;16.52;;;5.50;;
80172;SDS011;69497;41.708;44.804;2023-04-24T08:20:19;13.85;;;5.10;;
80172;SDS011;69497;41.708;44.804;2023-04-24T08:22:45;20.33;;;6.35;;
80172;SDS011;69497;41.708;44.804;2023-04-24T08:25:12;19.30;;;5.82;;
80172;SDS011;69497;41.708;44.804;2023-04-24T08:27:38;14.63;;;6.03;;
80172;SDS011;69497;41.708;44.804;2023-04-24T08:30:05;22.95;;;5.85;;
80172;SDS011;69497;41.708;44.804;2023-04-24T08:32:32;14.52;;;6.05;;
80172;SDS011;69497;41.708;44.804;2023-04-24T08:34:58;16.38;;;5.20;;
80172;SDS011;69497;41.708;44.804;2023-04-24T08:37:25;11.95;;;5.03;;
80172;SDS011;69497;41.708;44.804;2023-04-24T08:39:52;20.00;;;6.50;;
80172;SDS011;69497;41.708;44.804;2023-04-24T08:42:19;15.65;;;5.63;;
80172;SDS011;69497;41.708;44.804;2023-04-24T08:44:46;19.85;;;6.45;;
80172;SDS011;69497;41.708;44.804;2023-04-24T08:47:14;16.83;;;5.85;;
80172;SDS011;69497;41.708;44.804;2023-04-24T08:49:40;27.23;;;6.35;;
80172;SDS011;69497;41.708;44.804;2023-04-24T08:52:08;18.50;;;6.13;;
80172;SDS011;69497;41.708;44.804;2023-04-24T08:54:35;16.80;;;6.45;;
80172;SDS011;69497;41.708;44.804;2023-04-24T08:57:04;21.23;;;7.07;;
80172;SDS011;69497;41.708;44.804;2023-04-24T08:59:33;17.13;;;6.40;;
80172;SDS011;69497;41.708;44.804;2023-04-24T09:02:00;17.27;;;6.55;;
80172;SDS011;69497;41.708;44.804;2023-04-24T09:04:29;19.75;;;6.55;;
80172;SDS011;69497;41.708;44.804;2023-04-24T09:06:56;17.52;;;6.85;;
80172;SDS011;69497;41.708;44.804;2023-04-24T09:09:23;18.60;;;6.88;;
80172;SDS011;69497;41.708;44.804;2023-04-24T09:11:51;17.63;;;6.93;;
80172;SDS011;69497;41.708;44.804;2023-04-24T09:14:20;18.25;;;6.55;;
80172;SDS011;69497;41.708;44.804;2023-04-24T09:16:48;23.10;;;7.55;;
80172;SDS011;69497;41.708;44.804;2023-04-24T09:19:15;16.98;;;6.82;;
80172;SDS011;69497;41.708;44.804;2023-04-24T09:21:41;23.25;;;6.63;;
80172;SDS011;69497;41.708;44.804;2023-04-24T09:24:18;22.95;;;6.88;;
80172;SDS011;69497;41.708;44.804;2023-04-24T09:26:49;19.15;;;6.93;;
80172;SDS011;69497;41.708;44.804;2023-04-24T09:29:27;20.05;;;6.15;;
80172;SDS011;69497;41.708;44.804;2023-04-24T09:31:53;17.52;;;7.03;;
80172;SDS011;69497;41.708;44.804;2023-04-24T09:34:23;21.52;;;8.00;;
80172;SDS011;69497;41.708;44.804;2023-04-24T09:36:51;24.35;;;7.32;;
80172;SDS011;69497;41.708;44.804;2023-04-24T09:39:17;20.00;;;7.47;;
80172;SDS011;69497;41.708;44.804;2023-04-24T09:41:48;21.27;;;7.00;;
80172;SDS011;69497;41.708;44.804;2023-04-24T09:44:16;19.88;;;7.53;;
80172;SDS011;69497;41.708;44.804;2023-04-24T09:46:53;16.45;;;6.90;;
80172;SDS011;69497;41.708;44.804;2023-04-24T09:49:27;14.35;;;5.68;;
80172;SDS011;69497;41.708;44.804;2023-04-24T09:54:30;20.15;;;6.78;;
80172;SDS011;69497;41.708;44.804;2023-04-24T09:56:56;15.55;;;6.50;;
80172;SDS011;69497;41.708;44.804;2023-04-24T09:59:22;24.42;;;6.00;;
80172;SDS011;69497;41.708;44.804;2023-04-24T10:01:49;13.45;;;6.32;;
80172;SDS011;69497;41.708;44.804;2023-04-24T10:04:16;13.18;;;6.07;;
80172;SDS011;69497;41.708;44.804;2023-04-24T10:06:51;19.20;;;6.68;;
80172;SDS011;69497;41.708;44.804;2023-04-24T10:09:21;17.75;;;6.07;;
80172;SDS011;69497;41.708;44.804;2023-04-24T10:11:49;22.15;;;7.43;;
80172;SDS011;69497;41.708;44.804;2023-04-24T10:14:17;17.50;;;5.93;;
80172;SDS011;69497;41.708;44.804;2023-04-24T10:16:46;16.88;;;6.40;;
80172;SDS011;69497;41.708;44.804;2023-04-24T10:19:12;18.08;;;5.72;;
80172;SDS011;69497;41.708;44.804;2023-04-24T10:21:40;16.27;;;5.40;;
80172;SDS011;69497;41.708;44.804;2023-04-24T10:24:13;17.70;;;5.57;;
80172;SDS011;69497;41.708;44.804;2023-04-24T10:26:41;15.07;;;5.65;;
80172;SDS011;69497;41.708;44.804;2023-04-24T10:29:08;20.45;;;6.28;;
80172;SDS011;69497;41.708;44.804;2023-04-24T10:31:38;17.75;;;5.85;;
80172;SDS011;69497;41.708;44.804;2023-04-24T10:34:08;20.67;;;6.32;;
80172;SDS011;69497;41.708;44.804;2023-04-24T10:36:36;19.70;;;6.32;;
80172;SDS011;69497;41.708;44.804;2023-04-24T10:39:08;21.13;;;6.22;;
80172;SDS011;69497;41.708;44.804;2023-04-24T10:41:37;20.75;;;6.18;;
80172;SDS011;69497;41.708;44.804;2023-04-24T10:44:13;15.73;;;5.82;;
80172;SDS011;69497;41.708;44.804;2023-04-24T10:46:44;18.48;;;6.05;;
80172;SDS011;69497;41.708;44.804;2023-04-24T10:49:11;18.60;;;6.03;;
80172;SDS011;69497;41.708;44.804;2023-04-24T10:51:53;19.13;;;6.32;;
80172;SDS011;69497;41.708;44.804;2023-04-24T10:54:23;15.52;;;6.43;;
80172;SDS011;69497;41.708;44.804;2023-04-24T10:56:51;15.95;;;6.10;;
80172;SDS011;69497;41.708;44.804;2023-04-24T10:59:24;16.40;;;5.88;;
80172;SDS011;69497;41.708;44.804;2023-04-24T11:01:53;16.08;;;5.90;;
80172;SDS011;69497;41.708;44.804;2023-04-24T11:04:29;20.40;;;5.97;;
80172;SDS011;69497;41.708;44.804;2023-04-24T11:06:57;18.50;;;6.25;;
80172;SDS011;69497;41.708;44.804;2023-04-24T11:09:26;27.13;;;7.40;;
80172;SDS011;69497;41.708;44.804;2023-04-24T11:17:33;22.73;;;7.13;;
80172;SDS011;69497;41.708;44.804;2023-04-24T11:20:06;20.20;;;7.32;;
80172;SDS011;69497;41.708;44.804;2023-04-24T11:22:39;18.27;;;6.93;;
80172;SDS011;69497;41.708;44.804;2023-04-24T11:25:05;17.10;;;7.97;;
80172;SDS011;69497;41.708;44.804;2023-04-24T11:27:39;24.58;;;7.50;;
80172;SDS011;69497;41.708;44.804;2023-04-24T11:30:06;18.35;;;7.65;;
80172;SDS011;69497;41.708;44.804;2023-04-24T11:35:08;15.63;;;7.13;;
80172;SDS011;69497;41.708;44.804;2023-04-24T11:40:05;24.27;;;8.48;;
80172;SDS011;69497;41.708;44.804;2023-04-24T11:42:33;22.65;;;8.70;;
80172;SDS011;69497;41.708;44.804;2023-04-24T11:45:22;17.55;;;8.52;;
80172;SDS011;69497;41.708;44.804;2023-04-24T11:47:49;16.60;;;8.50;;
80172;SDS011;69497;41.708;44.804;2023-04-24T11:50:17;17.05;;;9.05;;
80172;SDS011;69497;41.708;44.804;2023-04-24T11:52:46;28.30;;;10.57;;
80172;SDS011;69497;41.708;44.804;2023-04-24T11:57:41;28.02;;;10.20;;
80172;SDS011;69497;41.708;44.804;2023-04-24T12:00:15;24.00;;;9.57;;
80172;SDS011;69497;41.708;44.804;2023-04-24T12:02:42;21.98;;;10.63;;
80172;SDS011;69497;41.708;44.804;2023-04-24T12:05:08;32.65;;;11.68;;
80172;SDS011;69497;41.708;44.804;2023-04-24T12:07:41;24.00;;;11.05;;
80172;SDS011;69497;41.708;44.804;2023-04-24T12:10:10;25.48;;;11.98;;
80172;SDS011;69497;41.708;44.804;2023-04-24T12:12:36;24.45;;;13.15;;
80172;SDS011;69497;41.708;44.804;2023-04-24T12:15:06;28.50;;;12.57;;
80172;SDS011;69497;41.708;44.804;2023-04-24T12:17:34;25.17;;;11.38;;
80172;SDS011;69497;41.708;44.804;2023-04-24T12:20:03;20.50;;;10.98;;
80172;SDS011;69497;41.708;44.804;2023-04-24T12:25:17;24.30;;;12.07;;
80172;SDS011;69497;41.708;44.804;2023-04-24T12:27:45;26.65;;;12.68;;
80172;SDS011;69497;41.708;44.804;2023-04-24T12:30:13;26.17;;;12.52;;
80172;SDS011;69497;41.708;44.804;2023-04-24T12:32:44;28.60;;;12.40;;
80172;SDS011;69497;41.708;44.804;2023-04-24T12:35:12;32.50;;;14.10;;
80172;SDS011;69497;41.708;44.804;2023-04-24T12:37:41;38.75;;;15.45;;
80172;SDS011;69497;41.708;44.804;2023-04-24T12:40:12;34.25;;;16.70;;
80172;SDS011;69497;41.708;44.804;2023-04-24T12:42:45;30.30;;;16.35;;
80172;SDS011;69497;41.708;44.804;2023-04-24T12:45:13;27.50;;;13.57;;
80172;SDS011;69497;41.708;44.804;2023-04-24T12:47:40;28.60;;;14.65;;
80172;SDS011;69497;41.708;44.804;2023-04-24T12:50:07;33.13;;;14.68;;
80172;SDS011;69497;41.708;44.804;2023-04-24T12:52:35;26.48;;;14.15;;
80172;SDS011;69497;41.708;44.804;2023-04-24T12:55:01;29.80;;;14.02;;
80172;SDS011;69497;41.708;44.804;2023-04-24T12:57:29;31.08;;;15.30;;
80172;SDS011;69497;41.708;44.804;2023-04-24T12:59:56;28.52;;;14.10;;
80172;SDS011;69497;41.708;44.804;2023-04-24T13:02:24;30.38;;;15.60;;
80172;SDS011;69497;41.708;44.804;2023-04-24T13:04:51;36.60;;;15.80;;
80172;SDS011;69497;41.708;44.804;2023-04-24T13:07:18;30.27;;;17.00;;
80172;SDS011;69497;41.708;44.804;2023-04-24T13:09:44;30.40;;;15.50;;
80172;SDS011;69497;41.708;44.804;2023-04-24T13:12:11;28.67;;;16.52;;
80172;SDS011;69497;41.708;44.804;2023-04-24T13:14:38;38.17;;;18.23;;
80172;SDS011;69497;41.708;44.804;2023-04-24T13:17:04;37.90;;;18.15;;
80172;SDS011;69497;41.708;44.804;2023-04-24T13:19:35;30.23;;;16.05;;
80172;SDS011;69497;41.708;44.804;2023-04-24T13:22:02;35.75;;;18.02;;
80172;SDS011;69497;41.708;44.804;2023-04-24T13:24:29;32.88;;;16.48;;
80172;SDS011;69497;41.708;44.804;2023-04-24T13:26:56;35.92;;;15.68;;
80172;SDS011;69497;41.708;44.804;2023-04-24T13:29:23;34.28;;;18.83;;
80172;SDS011;69497;41.708;44.804;2023-04-24T13:31:50;35.90;;;18.48;;
80172;SDS011;69497;41.708;44.804;2023-04-24T13:34:17;33.42;;;18.08;;
80172;SDS011;69497;41.708;44.804;2023-04-24T13:36:43;37.13;;;19.88;;
80172;SDS011;69497;41.708;44.804;2023-04-24T13:39:09;35.78;;;18.73;;
80172;SDS011;69497;41.708;44.804;2023-04-24T13:41:36;37.80;;;20.70;;
80172;SDS011;69497;41.708;44.804;2023-04-24T13:44:02;44.42;;;20.85;;
80172;SDS011;69497;41.708;44.804;2023-04-24T13:46:29;38.53;;;19.88;;
80172;SDS011;69497;41.708;44.804;2023-04-24T13:48:56;41.92;;;21.73;;
80172;SDS011;69497;41.708;44.804;2023-04-24T13:51:23;43.28;;;22.77;;
80172;SDS011;69497;41.708;44.804;2023-04-24T13:53:52;37.45;;;21.50;;
80172;SDS011;69497;41.708;44.804;2023-04-24T13:56:19;41.47;;;23.10;;
80172;SDS011;69497;41.708;44.804;2023-04-24T13:58:45;34.15;;;22.50;;
80172;SDS011;69497;41.708;44.804;2023-04-24T14:01:12;41.20;;;21.95;;
80172;SDS011;69497;41.708;44.804;2023-04-24T14:03:38;36.97;;;22.45;;
80172;SDS011;69497;41.708;44.804;2023-04-24T14:06:04;39.10;;;25.02;;
80172;SDS011;69497;41.708;44.804;2023-04-24T14:08:31;39.17;;;23.15;;
80172;SDS011;69497;41.708;44.804;2023-04-24T14:10:58;41.80;;;24.52;;
80172;SDS011;69497;41.708;44.804;2023-04-24T14:13:24;44.65;;;27.70;;
80172;SDS011;69497;41.708;44.804;2023-04-24T14:15:50;47.75;;;26.85;;
80172;SDS011;69497;41.708;44.804;2023-04-24T14:18:18;49.08;;;27.38;;
80172;SDS011;69497;41.708;44.804;2023-04-24T14:20:44;45.53;;;27.63;;
80172;SDS011;69497;41.708;44.804;2023-04-24T14:23:10;50.83;;;25.85;;
80172;SDS011;69497;41.708;44.804;2023-04-24T14:25:37;43.83;;;27.88;;
80172;SDS011;69497;41.708;44.804;2023-04-24T14:28:03;55.40;;;28.20;;
80172;SDS011;69497;41.708;44.804;2023-04-24T14:30:29;49.03;;;27.88;;
80172;SDS011;69497;41.708;44.804;2023-04-24T14:35:40;45.55;;;26.58;;
80172;SDS011;69497;41.708;44.804;2023-04-24T14:38:09;45.10;;;26.48;;
80172;SDS011;69497;41.708;44.804;2023-04-24T14:40:36;43.90;;;25.52;;